Time;durP1;ratioP1;P1;durP2;ratioP2;P2;SDS_P1;SDS_P2;PMS_P1;PMS_P2;Temp;Humidity;BMP_temperature;BMP_pressure;BME280_temperature;BME280_humidity;BME280_pressure;Samples;Min_cycle;Max_cycle;Signal;HPM_P1;HPM_P2
2021/03/04 00:02:00;;;;;;;99.60;56.78;;;;;;;6.76;84.26;101231.63;5019421;28;20079;-75
2021/03/04 00:04:27;;;;;;;94.82;54.65;;;;;;;6.60;84.98;101233.88;5008476;28;20137;-76
2021/03/04 00:06:54;;;;;;;101.13;56.72;;;;;;;6.66;85.16;101235.41;5015333;28;20505;-76
2021/03/04 00:09:21;;;;;;;97.38;57.88;;;;;;;6.61;84.98;101238.19;5022388;28;20053;-77
2021/03/04 00:11:47;;;;;;;110.00;58.75;;;;;;;6.54;85.64;101241.91;5008653;28;20139;-76
2021/03/04 00:14:14;;;;;;;102.00;58.13;;;;;;;6.46;86.02;101233.47;5021350;28;20053;-77
2021/03/04 00:16:41;;;;;;;104.10;58.95;;;;;;;6.48;86.50;101239.47;5008295;28;20061;-75
2021/03/04 00:19:08;;;;;;;114.13;63.55;;;;;;;6.40;86.63;101233.66;5028864;28;20064;-76
2021/03/04 00:21:35;;;;;;;107.75;61.53;;;;;;;6.42;87.18;101232.69;5037605;28;20335;-78
2021/03/04 00:24:01;;;;;;;114.43;64.25;;;;;;;6.45;86.87;101227.38;5022555;28;20139;-77
2021/03/04 00:26:28;;;;;;;118.70;62.58;;;;;;;6.44;87.15;101232.63;5005462;28;20053;-76
2021/03/04 00:28:55;;;;;;;121.85;66.18;;;;;;;6.39;87.55;101232.78;5001022;28;20103;-75
2021/03/04 00:31:22;;;;;;;116.57;67.18;;;;;;;6.34;87.86;101229.47;5018029;28;20155;-76
2021/03/04 00:33:49;;;;;;;114.28;64.53;;;;;;;6.42;87.74;101227.47;5011167;28;20057;-75
2021/03/04 00:36:15;;;;;;;117.57;65.32;;;;;;;6.31;88.52;101230.44;4987277;28;20327;-76
2021/03/04 00:38:42;;;;;;;121.22;69.28;;;;;;;6.21;89.02;101225.53;5013309;28;20073;-77
2021/03/04 00:41:09;;;;;;;122.85;71.93;;;;;;;6.25;89.11;101224.53;5031612;28;20128;-75
2021/03/04 00:43:36;;;;;;;130.43;72.00;;;;;;;6.21;89.17;101223.75;4992088;28;20253;-75
2021/03/04 00:46:03;;;;;;;126.57;72.28;;;;;;;6.20;89.41;101218.59;5032792;28;20049;-76
2021/03/04 00:48:29;;;;;;;124.20;71.47;;;;;;;6.14;89.54;101213.56;5001438;28;20539;-76
2021/03/04 00:50:56;;;;;;;127.47;71.72;;;;;;;6.08;89.99;101212.84;4996868;28;20048;-76
2021/03/04 00:53:23;;;;;;;127.72;67.45;;;;;;;6.01;89.82;101208.72;5014010;28;20140;-76
2021/03/04 00:55:50;;;;;;;121.03;68.82;;;;;;;6.05;89.46;101217.31;4999501;28;20037;-76
2021/03/04 00:58:17;;;;;;;129.77;69.93;;;;;;;6.04;89.22;101202.53;5027326;28;20053;-76
2021/03/04 01:00:43;;;;;;;126.60;70.45;;;;;;;5.96;89.59;101210.59;4996936;28;20048;-76
2021/03/04 01:03:10;;;;;;;122.70;67.60;;;;;;;5.96;89.60;101207.13;5014263;28;20071;-76
2021/03/04 01:05:37;;;;;;;119.90;66.57;;;;;;;5.90;89.13;101197.72;5033264;28;20069;-75
2021/03/04 01:08:04;;;;;;;121.93;70.80;;;;;;;5.92;88.63;101197.69;5001391;28;20405;-76
2021/03/04 01:10:37;;;;;;;129.50;70.28;;;;;;;5.92;88.42;101200.28;5023099;28;20481;-76
2021/03/04 01:13:04;;;;;;;127.20;70.18;;;;;;;5.84;88.62;101200.47;5003396;28;20058;-75
2021/03/04 01:15:31;;;;;;;129.88;68.68;;;;;;;5.96;88.15;101181.84;5018755;28;20568;-76
2021/03/04 01:18:00;;;;;;;123.90;68.07;;;;;;;5.87;88.27;101195.19;4999095;28;20055;-77
2021/03/04 01:20:27;;;;;;;125.88;68.43;;;;;;;5.83;87.78;101176.13;5015017;28;20211;-76
2021/03/04 01:22:54;;;;;;;119.53;68.15;;;;;;;5.78;88.71;101175.41;5015228;28;20037;-75
2021/03/04 01:25:21;;;;;;;123.72;68.72;;;;;;;5.77;88.79;101175.47;5039854;28;20045;-75
2021/03/04 01:27:49;;;;;;;125.75;73.35;;;;;;;5.71;88.53;101173.00;5010603;28;20456;-76
2021/03/04 01:30:16;;;;;;;123.28;70.45;;;;;;;5.77;88.63;101165.00;5004973;28;20045;-76
2021/03/04 01:32:43;;;;;;;119.95;67.55;;;;;;;5.68;88.87;101168.75;5011002;28;20072;-75
2021/03/04 01:35:10;;;;;;;123.20;69.85;;;;;;;5.58;89.01;101164.69;5003645;28;20088;-76
2021/03/04 01:37:38;;;;;;;123.53;67.45;;;;;;;5.53;89.48;101159.59;5012274;28;20617;-76
2021/03/04 01:40:10;;;;;;;121.40;64.78;;;;;;;5.50;89.83;101166.69;4992464;28;20096;-75
2021/03/04 01:42:38;;;;;;;124.60;66.88;;;;;;;5.52;89.49;101155.28;5002278;28;20667;-76
2021/03/04 01:45:06;;;;;;;123.50;68.35;;;;;;;5.53;89.46;101162.22;4999437;28;20049;-76
2021/03/04 01:47:34;;;;;;;118.82;66.47;;;;;;;5.43;90.33;101158.16;4975201;28;20125;-75
2021/03/04 01:50:03;;;;;;;122.63;66.32;;;;;;;5.35;90.69;101152.31;5015704;28;20080;-76
2021/03/04 01:52:30;;;;;;;121.57;65.78;;;;;;;5.33;90.42;101152.34;5003338;28;20484;-75
2021/03/04 01:54:59;;;;;;;129.18;67.70;;;;;;;5.31;91.32;101155.91;5015326;28;20067;-76
2021/03/04 01:57:27;;;;;;;129.65;70.07;;;;;;;5.30;91.20;101149.81;5011203;28;20037;-75
2021/03/04 01:59:56;;;;;;;133.73;70.63;;;;;;;5.21;91.77;101151.84;5000141;28;20045;-75
2021/03/04 02:02:23;;;;;;;131.02;68.55;;;;;;;5.22;92.15;101140.50;4991744;28;20136;-75
2021/03/04 02:04:52;;;;;;;122.93;70.75;;;;;;;5.12;92.04;101141.66;5014229;28;20132;-76
2021/03/04 02:07:27;;;;;;;128.68;70.35;;;;;;;5.05;92.38;101144.47;4993847;28;20080;-75
2021/03/04 02:10:01;;;;;;;128.00;71.10;;;;;;;5.10;92.13;101140.88;5023574;28;20140;-75
2021/03/04 02:12:43;;;;;;;129.32;70.90;;;;;;;5.15;92.76;101139.84;5031050;28;20595;-75
2021/03/04 02:15:14;;;;;;;130.85;73.28;;;;;;;5.10;92.55;101139.09;5031391;28;20044;-76
2021/03/04 02:17:45;;;;;;;134.32;76.15;;;;;;;5.06;92.80;101133.13;5036452;28;20045;-75
2021/03/04 02:20:34;;;;;;;138.55;76.90;;;;;;;5.08;93.56;101130.44;5009942;28;20580;-75
2021/03/04 02:23:11;;;;;;;134.05;75.68;;;;;;;5.03;93.13;101135.81;5034028;28;20544;-76
2021/03/04 02:26:09;;;;;;;139.95;77.70;;;;;;;5.06;93.63;101125.28;5003159;28;20069;-75
2021/03/04 02:28:36;;;;;;;136.02;75.80;;;;;;;4.97;93.48;101112.50;5025108;28;20065;-76
2021/03/04 02:31:05;;;;;;;137.20;78.03;;;;;;;4.96;93.68;101104.72;4999597;28;20072;-75
2021/03/04 02:33:33;;;;;;;137.40;77.20;;;;;;;4.84;93.80;101108.50;5002580;28;20061;-77
2021/03/04 02:36:00;;;;;;;142.60;81.70;;;;;;;4.82;94.81;101103.34;4996551;28;20066;-78
2021/03/04 02:38:27;;;;;;;143.40;78.53;;;;;;;4.78;94.17;101114.75;5021299;28;20408;-78
2021/03/04 02:40:55;;;;;;;141.90;81.00;;;;;;;4.82;94.44;101110.31;5022981;28;20037;-77
2021/03/04 02:43:24;;;;;;;148.80;78.00;;;;;;;4.89;94.22;101111.00;4991903;28;20100;-76
2021/03/04 02:45:52;;;;;;;148.55;81.32;;;;;;;4.94;94.68;101109.09;5003940;28;20037;-76
2021/03/04 02:48:20;;;;;;;147.98;80.93;;;;;;;4.91;94.15;101112.69;4986479;28;20144;-76
2021/03/04 02:50:48;;;;;;;144.75;79.70;;;;;;;4.93;94.40;101110.03;5008716;28;20087;-77
2021/03/04 02:53:16;;;;;;;140.25;79.03;;;;;;;5.00;93.81;101106.34;5023159;28;20047;-77
2021/03/04 02:55:43;;;;;;;147.95;81.10;;;;;;;4.96;93.96;101102.97;5007004;28;20144;-77
2021/03/04 02:58:12;;;;;;;140.25;78.93;;;;;;;4.99;93.18;101102.84;4998621;28;20144;-76
2021/03/04 03:00:39;;;;;;;151.43;84.47;;;;;;;4.94;94.09;101107.34;5031504;28;20057;-77
2021/03/04 03:03:09;;;;;;;142.68;80.53;;;;;;;5.02;92.80;101105.38;4999255;28;20049;-77
2021/03/04 03:05:37;;;;;;;146.05;83.10;;;;;;;4.95;93.41;101108.22;5022118;28;20060;-76
2021/03/04 03:08:05;;;;;;;143.00;84.72;;;;;;;4.94;93.38;101103.91;5013277;28;20129;-76
2021/03/04 03:10:33;;;;;;;143.90;81.03;;;;;;;5.04;93.23;101106.22;5027221;28;20466;-75
2021/03/04 03:13:01;;;;;;;142.90;80.38;;;;;;;5.01;92.37;101106.28;4998963;28;20060;-77
2021/03/04 03:15:28;;;;;;;142.55;80.07;;;;;;;5.01;92.33;101108.91;4998658;28;20112;-76
2021/03/04 03:17:55;;;;;;;144.13;78.70;;;;;;;4.92;92.43;101111.78;5007866;28;20055;-77
2021/03/04 03:20:22;;;;;;;138.70;79.55;;;;;;;5.00;92.18;101119.41;5023097;28;20045;-76
2021/03/04 03:22:50;;;;;;;144.80;80.28;;;;;;;4.91;92.60;101122.22;5029047;28;20045;-76
2021/03/04 03:25:17;;;;;;;143.20;78.65;;;;;;;4.97;92.28;101122.94;5025226;28;20129;-76
2021/03/04 03:27:45;;;;;;;140.30;80.20;;;;;;;5.01;92.00;101115.88;5020898;28;20540;-76
2021/03/04 03:30:13;;;;;;;135.25;72.55;;;;;;;4.98;91.57;101127.25;5002538;28;20132;-75
2021/03/04 03:32:43;;;;;;;118.70;67.53;;;;;;;4.94;90.18;101123.00;5008779;28;20506;-75
2021/03/04 03:35:11;;;;;;;136.10;70.55;;;;;;;4.72;90.90;101117.50;4983805;28;20041;-76
2021/03/04 03:37:38;;;;;;;129.63;67.88;;;;;;;4.63;91.71;101109.94;5012687;28;20138;-77
2021/03/04 03:40:06;;;;;;;127.05;66.15;;;;;;;4.38;92.59;101111.50;5026522;28;20053;-75
2021/03/04 03:42:35;;;;;;;128.55;70.70;;;;;;;4.49;92.37;101109.44;5011251;28;20038;-76
2021/03/04 03:45:03;;;;;;;131.60;68.40;;;;;;;4.56;91.43;101117.09;4995162;28;20494;-75
2021/03/04 03:47:34;;;;;;;120.78;65.50;;;;;;;4.70;91.39;101115.88;5003256;28;20033;-76
2021/03/04 03:50:21;;;;;;;120.50;63.65;;;;;;;4.56;91.28;101106.66;5008494;28;20048;-77
2021/03/04 03:52:49;;;;;;;119.90;66.30;;;;;;;4.56;92.32;101108.41;4990846;28;20478;-76
2021/03/04 03:55:16;;;;;;;129.60;67.10;;;;;;;4.53;91.83;101109.34;5010149;28;20057;-76
2021/03/04 03:57:44;;;;;;;112.20;63.47;;;;;;;4.76;91.41;101111.31;5003883;28;20050;-76
2021/03/04 04:00:13;;;;;;;114.72;59.28;;;;;;;4.67;89.59;101108.13;4992580;28;20053;-76
2021/03/04 04:02:40;;;;;;;107.80;55.53;;;;;;;4.43;89.72;101117.44;5014259;28;20050;-77
2021/03/04 04:05:07;;;;;;;106.22;56.05;;;;;;;4.43;90.64;101114.84;5015074;28;20041;-76
2021/03/04 04:07:34;;;;;;;108.88;54.92;;;;;;;4.39;90.32;101110.59;5018101;28;20075;-76
2021/03/04 04:10:03;;;;;;;102.22;55.03;;;;;;;4.33;90.36;101119.44;4992942;28;20490;-76
2021/03/04 04:12:29;;;;;;;104.85;54.78;;;;;;;4.41;90.17;101121.81;5015416;28;20072;-77
2021/03/04 04:14:56;;;;;;;105.60;54.35;;;;;;;4.43;90.20;101118.28;4985852;28;20108;-77
2021/03/04 04:17:23;;;;;;;99.88;53.15;;;;;;;4.45;89.65;101118.25;5011326;28;20124;-76
2021/03/04 04:19:52;;;;;;;107.43;55.60;;;;;;;4.31;89.45;101118.59;5010407;28;20050;-77
2021/03/04 04:22:20;;;;;;;107.82;56.75;;;;;;;3.96;91.59;101109.91;5002004;28;20171;-77
2021/03/04 04:24:46;;;;;;;108.78;55.50;;;;;;;4.20;91.33;101105.00;4993385;28;20136;-76
2021/03/04 04:27:13;;;;;;;110.85;54.95;;;;;;;3.95;92.29;101107.31;4989225;28;20152;-76
2021/03/04 04:29:40;;;;;;;108.60;55.05;;;;;;;4.02;92.11;101111.50;4999251;28;20064;-76
2021/03/04 04:32:07;;;;;;;108.55;56.10;;;;;;;4.05;91.98;101096.66;5010807;28;20084;-76
2021/03/04 04:34:34;;;;;;;114.05;56.97;;;;;;;4.13;92.02;101100.81;5013509;28;20049;-77
2021/03/04 04:37:01;;;;;;;113.47;57.47;;;;;;;4.11;91.33;101108.69;5011700;28;20081;-76
2021/03/04 04:39:28;;;;;;;114.63;56.28;;;;;;;3.97;92.09;101100.34;5017302;28;20124;-76
2021/03/04 04:41:54;;;;;;;96.60;52.63;;;;;;;4.16;91.52;101095.53;5026251;28;20080;-76
2021/03/04 04:44:21;;;;;;;106.38;54.60;;;;;;;3.87;91.97;101097.09;4995099;28;20509;-76
2021/03/04 04:46:48;;;;;;;110.70;54.40;;;;;;;3.92;91.87;101099.59;5022447;28;20053;-76
2021/03/04 04:49:15;;;;;;;111.85;55.10;;;;;;;3.65;92.11;101106.28;4993266;28;20059;-77
2021/03/04 04:51:41;;;;;;;112.10;52.00;;;;;;;3.64;93.00;101101.97;5023568;28;20063;-77
2021/03/04 04:54:08;;;;;;;109.20;49.42;;;;;;;3.63;92.41;101106.31;5007608;28;20068;-76
2021/03/04 04:56:35;;;;;;;104.60;47.83;;;;;;;3.66;92.10;101095.84;5013797;28;20048;-76
2021/03/04 04:59:02;;;;;;;102.32;47.53;;;;;;;3.65;91.97;101101.06;5006053;28;20072;-75
2021/03/04 05:01:29;;;;;;;93.35;44.72;;;;;;;3.53;91.75;101100.47;5026146;28;20141;-75
2021/03/04 05:03:56;;;;;;;96.93;46.55;;;;;;;3.46;91.38;101096.28;5040798;28;20049;-76
2021/03/04 05:06:23;;;;;;;91.28;44.20;;;;;;;3.57;91.51;101105.63;5021282;28;20042;-76
2021/03/04 05:08:49;;;;;;;89.82;42.97;;;;;;;3.63;90.05;101103.72;5003594;28;20053;-77
2021/03/04 05:11:16;;;;;;;78.72;39.13;;;;;;;3.67;89.67;101092.34;5016356;28;20059;-76
2021/03/04 05:13:46;;;;;;;90.15;45.03;;;;;;;3.59;89.67;101098.63;5011058;28;20054;-76
2021/03/04 05:16:13;;;;;;;97.20;41.83;;;;;;;3.70;89.61;101099.25;4995411;28;20072;-77
2021/03/04 05:18:40;;;;;;;85.78;41.58;;;;;;;3.53;89.67;101095.25;5039130;28;20053;-76
2021/03/04 05:21:17;;;;;;;83.78;41.72;;;;;;;3.76;89.98;101088.69;5041371;28;20087;-76
2021/03/04 05:23:43;;;;;;;90.03;41.17;;;;;;;3.61;89.98;101094.25;5013689;28;20045;-76
2021/03/04 05:26:10;;;;;;;95.93;43.92;;;;;;;3.45;90.47;101093.72;4996121;28;20080;-76
2021/03/04 05:28:37;;;;;;;97.72;42.25;;;;;;;3.50;90.56;101079.72;4980558;28;20049;-76
2021/03/04 05:31:03;;;;;;;101.60;44.17;;;;;;;3.59;89.82;101083.84;4999988;28;20049;-77
2021/03/04 05:33:30;;;;;;;90.45;41.03;;;;;;;3.61;90.09;101069.06;5017832;28;20460;-76
2021/03/04 05:35:57;;;;;;;89.45;40.75;;;;;;;3.74;89.68;101069.66;4997564;28;20042;-76
2021/03/04 05:38:24;;;;;;;81.72;40.00;;;;;;;3.73;89.28;101078.31;5011613;28;20067;-75
2021/03/04 05:40:51;;;;;;;78.85;37.70;;;;;;;3.73;88.98;101068.75;5045253;23;20101;-81
2021/03/04 05:43:18;;;;;;;95.82;40.92;;;;;;;3.77;88.67;101069.56;5009041;28;20033;-80
2021/03/04 05:45:48;;;;;;;94.38;41.22;;;;;;;3.75;88.86;101074.81;4993944;28;20197;-81
2021/03/04 05:48:19;;;;;;;95.40;40.53;;;;;;;3.60;90.18;101082.09;5011842;28;20112;-81
2021/03/04 05:50:49;;;;;;;95.13;43.92;;;;;;;3.65;90.45;101075.03;5049669;28;20079;-82
2021/03/04 05:53:19;;;;;;;117.10;48.30;;;;;;;3.64;90.97;101073.34;5019800;28;20053;-82
2021/03/04 05:55:46;;;;;;;124.15;50.97;;;;;;;3.63;91.43;101067.28;5024835;28;20076;-80
2021/03/04 05:58:14;;;;;;;129.32;51.72;;;;;;;3.50;91.54;101064.09;5026811;28;20071;-79
2021/03/04 06:00:42;;;;;;;104.85;45.63;;;;;;;3.48;91.31;101073.69;5025875;28;20034;-80
2021/03/04 06:03:09;;;;;;;107.28;47.97;;;;;;;3.44;91.68;101071.19;5057626;28;20073;-78
2021/03/04 06:05:36;;;;;;;110.05;45.75;;;;;;;3.32;92.24;101074.91;5020714;28;20163;-82
2021/03/04 06:08:04;;;;;;;104.82;43.83;;;;;;;3.47;91.12;101076.34;5009856;28;20053;-81
2021/03/04 06:10:31;;;;;;;97.07;41.92;;;;;;;3.43;90.75;101072.94;5005779;28;20063;-80
2021/03/04 06:12:59;;;;;;;110.32;44.40;;;;;;;3.24;91.06;101066.41;5032036;28;20053;-81
2021/03/04 06:15:27;;;;;;;93.68;40.45;;;;;;;3.12;91.42;101067.56;5027676;28;20052;-82
2021/03/04 06:18:00;;;;;;;95.75;40.15;;;;;;;3.15;91.58;101064.91;5027371;28;20053;-79
2021/03/04 06:20:37;;;;;;;94.07;39.33;;;;;;;3.34;91.23;101069.69;5024392;28;20056;-83
2021/03/04 06:23:04;;;;;;;97.05;41.95;;;;;;;3.51;91.21;101078.84;5026888;28;20037;-82
2021/03/04 06:25:31;;;;;;;94.10;39.65;;;;;;;3.53;90.30;101069.25;5015299;28;20033;-82
2021/03/04 06:27:58;;;;;;;96.10;40.88;;;;;;;3.36;90.45;101071.34;5026995;28;20041;-79
2021/03/04 06:30:33;;;;;;;105.05;40.17;;;;;;;3.41;90.75;101076.47;5025149;28;20057;-78
2021/03/04 06:33:02;;;;;;;90.47;37.63;;;;;;;3.34;90.79;101078.34;5019157;28;20057;-81
2021/03/04 06:35:48;;;;;;;90.00;38.45;;;;;;;3.12;91.97;101074.50;5011635;28;20057;-83
2021/03/04 06:38:17;;;;;;;97.55;40.60;;;;;;;3.39;91.71;101073.91;5027767;28;20088;-83
2021/03/04 06:40:44;;;;;;;98.47;40.95;;;;;;;3.43;91.05;101075.53;5031790;28;20057;-81
2021/03/04 06:43:25;;;;;;;88.13;37.72;;;;;;;3.33;90.67;101073.16;5028871;28;20073;-83
2021/03/04 06:46:05;;;;;;;95.47;40.15;;;;;;;3.47;91.27;101072.00;5006496;28;20053;-83
2021/03/04 06:48:34;;;;;;;99.20;41.70;;;;;;;3.53;90.38;101071.84;5037872;28;20055;-84
2021/03/04 06:51:03;;;;;;;92.97;40.63;;;;;;;3.32;90.73;101071.47;5042461;28;20049;-83
2021/03/04 06:53:31;;;;;;;102.18;41.45;;;;;;;3.42;90.61;101078.16;5045356;28;20064;-81
2021/03/04 06:56:06;;;;;;;91.32;39.90;;;;;;;3.54;90.00;101089.16;5021321;28;20034;-81
2021/03/04 06:58:35;;;;;;;92.47;38.00;;;;;;;3.54;90.11;101083.97;5020696;28;20041;-81
2021/03/04 07:01:15;;;;;;;87.38;39.22;;;;;;;3.57;89.35;101085.66;5035945;28;20114;-80
2021/03/04 07:03:45;;;;;;;93.35;39.75;;;;;;;3.53;89.92;101084.00;5021392;28;20074;-83
2021/03/04 07:06:38;;;;;;;86.30;38.85;;;;;;;3.42;90.15;101079.03;5047708;28;20106;-82
2021/03/04 07:09:05;;;;;;;89.28;40.47;;;;;;;3.64;89.13;101073.34;5039591;28;20077;-83
2021/03/04 07:11:36;;;;;;;88.00;38.15;;;;;;;3.75;89.02;101068.75;4991939;28;20041;-83
2021/03/04 07:14:06;;;;;;;90.95;41.20;;;;;;;3.86;88.96;101071.09;5039126;28;20108;-83
2021/03/04 07:16:37;;;;;;;86.95;38.97;;;;;;;3.71;88.65;101067.09;5019018;28;20065;-83
2021/03/04 07:19:09;;;;;;;85.30;39.10;;;;;;;3.54;89.55;101062.28;5011736;28;20050;-82
2021/03/04 07:21:44;;;;;;;86.60;39.08;;;;;;;3.58;88.83;101073.47;5047579;28;20668;-83
2021/03/04 07:24:11;;;;;;;78.13;36.97;;;;;;;3.44;89.30;101077.25;5048662;28;20096;-81
2021/03/04 07:26:39;;;;;;;88.05;36.78;;;;;;;3.46;89.41;101077.22;5041770;28;20132;-82
2021/03/04 07:29:10;;;;;;;87.75;35.60;;;;;;;3.65;88.46;101067.22;5030422;28;20040;-81
2021/03/04 07:31:42;;;;;;;85.93;35.58;;;;;;;3.68;89.18;101070.63;5043498;28;20076;-81
2021/03/04 07:34:11;;;;;;;90.15;38.33;;;;;;;3.89;88.69;101064.06;5015476;28;20072;-82
2021/03/04 07:36:40;;;;;;;87.70;38.08;;;;;;;3.76;88.66;101068.69;5031144;28;20053;-80
2021/03/04 07:39:07;;;;;;;92.25;38.03;;;;;;;3.82;88.11;101062.47;5008682;28;20049;-84
2021/03/04 07:41:41;;;;;;;93.00;38.88;;;;;;;3.60;89.08;101067.34;5044472;28;20761;-83
2021/03/04 07:44:09;;;;;;;88.10;37.92;;;;;;;3.78;89.00;101073.84;5022401;28;20152;-80
2021/03/04 07:46:56;;;;;;;81.80;36.35;;;;;;;4.02;88.71;101070.69;5020284;28;20083;-80
2021/03/04 07:49:30;;;;;;;88.18;36.63;;;;;;;4.32;88.31;101066.44;5008688;28;20599;-80
2021/03/04 07:52:12;;;;;;;87.40;35.67;;;;;;;4.35;86.71;101065.50;5037606;28;20128;-79
2021/03/04 07:54:43;;;;;;;93.63;37.75;;;;;;;4.60;86.53;101064.88;5037357;28;20049;-79
2021/03/04 07:57:26;;;;;;;79.03;35.17;;;;;;;4.50;85.26;101072.06;5030492;28;20050;-82
2021/03/04 08:00:03;;;;;;;101.88;35.03;;;;;;;4.21;86.75;101068.47;5028893;28;20143;-81
2021/03/04 08:02:34;;;;;;;80.13;33.08;;;;;;;4.38;86.10;101075.00;5024985;28;20045;-79
2021/03/04 08:05:04;;;;;;;82.03;34.40;;;;;;;3.83;87.48;101074.63;5033789;28;20054;-86
2021/03/04 08:07:32;;;;;;;73.55;31.95;;;;;;;3.94;85.99;101083.03;5050099;28;20029;-84
2021/03/04 08:10:11;;;;;;;81.95;31.38;;;;;;;3.90;85.56;101078.78;5018671;28;20030;-83
2021/03/04 08:12:48;;;;;;;66.20;28.20;;;;;;;4.05;84.42;101081.03;5042554;28;20052;-84
2021/03/04 08:15:17;;;;;;;63.00;26.75;;;;;;;3.77;84.49;101075.63;5006350;28;20046;-83
2021/03/04 08:17:44;;;;;;;56.78;28.23;;;;;;;3.84;84.86;101070.28;5006181;28;20080;-80
2021/03/04 08:20:15;;;;;;;67.90;28.50;;;;;;;3.70;85.19;101066.25;5015333;28;20057;-79
2021/03/04 08:22:50;;;;;;;70.97;29.13;;;;;;;3.72;85.55;101066.19;5025057;28;20173;-82
2021/03/04 08:25:25;;;;;;;65.33;28.03;;;;;;;3.40;86.43;101065.19;5026730;28;20041;-83
2021/03/04 08:27:54;;;;;;;73.18;29.95;;;;;;;3.48;87.15;101063.28;5016407;28;20052;-82
2021/03/04 08:30:47;;;;;;;75.63;31.08;;;;;;;3.80;86.91;101064.28;5034960;28;20042;-84
2021/03/04 08:33:29;;;;;;;74.93;30.33;;;;;;;3.90;85.74;101063.16;5030369;28;20045;-83
2021/03/04 08:36:00;;;;;;;77.38;30.30;;;;;;;3.65;87.21;101059.41;5047179;28;20041;-82
2021/03/04 08:38:27;;;;;;;76.53;31.40;;;;;;;3.38;88.08;101067.00;5039642;23;20056;-84
2021/03/04 08:40:56;;;;;;;87.28;33.22;;;;;;;3.41;88.20;101056.50;5031613;28;20065;-85
2021/03/04 08:43:26;;;;;;;68.50;29.25;;;;;;;3.62;87.65;101065.56;5022969;28;20058;-85
2021/03/04 08:45:57;;;;;;;75.88;28.85;;;;;;;3.72;86.41;101058.41;5015507;28;20462;-86
2021/03/04 08:48:24;;;;;;;62.70;28.25;;;;;;;3.77;85.95;101056.53;5012820;28;20046;-85
2021/03/04 08:50:55;;;;;;;65.32;26.95;;;;;;;3.60;86.46;101054.31;5011962;28;20157;-85
2021/03/04 08:53:27;;;;;;;72.47;27.85;;;;;;;3.63;86.93;101056.84;5008597;28;20078;-85
2021/03/04 08:55:56;;;;;;;66.63;27.73;;;;;;;3.60;86.14;101048.25;5011289;28;20045;-86
2021/03/04 08:58:25;;;;;;;70.22;27.48;;;;;;;3.47;86.63;101051.16;4999520;28;20045;-85
2021/03/04 09:01:11;;;;;;;74.28;28.65;;;;;;;3.67;85.87;101052.44;5015652;28;20109;-86
2021/03/04 09:03:43;;;;;;;67.70;26.58;;;;;;;3.64;85.14;101047.31;5013590;28;20042;-86
2021/03/04 09:06:14;;;;;;;74.18;30.38;;;;;;;3.40;86.31;101049.59;5000327;28;20741;-85
2021/03/04 09:08:49;;;;;;;55.92;25.23;;;;;;;3.57;85.14;101051.81;5032444;28;20033;-85
2021/03/04 09:11:34;;;;;;;49.53;21.63;;;;;;;3.87;82.68;101052.81;5028675;28;20049;-85
2021/03/04 09:14:05;;;;;;;53.42;22.35;;;;;;;3.89;83.36;101044.97;5011254;28;20037;-86
2021/03/04 09:16:38;;;;;;;46.78;21.42;;;;;;;3.81;82.49;101042.53;5022659;28;20787;-86
2021/03/04 09:19:05;;;;;;;50.63;22.00;;;;;;;3.84;81.50;101041.63;5032188;28;20076;-85
2021/03/04 09:21:32;;;;;;;67.85;24.27;;;;;;;3.59;82.55;101028.34;5020039;28;20121;-85
2021/03/04 09:24:01;;;;;;;46.13;20.35;;;;;;;3.82;82.23;101039.03;5005586;28;20057;-85
2021/03/04 09:26:32;;;;;;;46.45;20.70;;;;;;;3.86;81.09;101032.00;5015495;28;20050;-85
2021/03/04 09:29:02;;;;;;;56.08;23.88;;;;;;;3.81;81.43;101032.13;4982528;28;20112;-86
2021/03/04 09:31:29;;;;;;;45.28;22.08;;;;;;;3.75;81.33;101029.69;4979434;28;20180;-84
2021/03/04 09:34:00;;;;;;;45.08;21.08;;;;;;;3.69;82.34;101037.63;5002578;28;20076;-82
2021/03/04 09:36:27;;;;;;;51.60;21.08;;;;;;;3.80;81.73;101039.09;4990668;28;20275;-84
2021/03/04 09:38:55;;;;;;;46.05;21.40;;;;;;;3.94;81.67;101040.50;4976635;28;20815;-82
2021/03/04 09:41:24;;;;;;;43.28;20.45;;;;;;;3.76;81.91;101037.44;5009643;28;20069;-82
2021/03/04 09:43:52;;;;;;;46.97;21.10;;;;;;;3.86;81.54;101038.06;5007642;28;20124;-83
2021/03/04 09:46:26;;;;;;;59.60;22.90;;;;;;;3.72;82.42;101043.63;5034033;28;20104;-82
2021/03/04 09:48:53;;;;;;;48.25;21.00;;;;;;;3.65;82.47;101051.59;5029591;28;20089;-90
2021/03/04 09:51:46;;;;;;;60.20;22.48;;;;;;;3.80;82.73;101046.06;5022757;28;20052;-90
2021/03/04 09:54:24;;;;;;;49.65;22.38;;;;;;;3.80;82.72;101051.25;5008857;28;20398;-89
2021/03/04 09:57:08;;;;;;;66.85;24.52;;;;;;;3.59;83.77;101052.63;5000615;28;20033;-89
2021/03/04 09:59:45;;;;;;;58.35;22.10;;;;;;;3.75;83.87;101060.94;5007767;28;20048;-89
2021/03/04 10:02:12;;;;;;;53.10;23.15;;;;;;;3.81;82.95;101059.03;4997503;28;20069;-89
2021/03/04 10:05:00;;;;;;;45.42;21.23;;;;;;;3.71;83.49;101052.34;5005210;28;20044;-89
2021/03/04 10:07:29;;;;;;;54.20;22.50;;;;;;;3.74;83.85;101057.47;4995962;28;20040;-89
2021/03/04 10:09:56;;;;;;;54.20;23.00;;;;;;;3.62;83.50;101055.16;5007211;28;20073;-89
2021/03/04 10:12:23;;;;;;;48.55;23.15;;;;;;;3.75;83.52;101060.94;4990731;28;20073;-90
2021/03/04 10:14:53;;;;;;;50.45;21.73;;;;;;;3.94;82.42;101059.59;4997447;28;20061;-89
2021/03/04 10:17:20;;;;;;;54.50;22.67;;;;;;;4.13;83.80;101051.31;4981519;28;20069;-89
2021/03/04 10:19:48;;;;;;;51.80;22.70;;;;;;;4.09;82.59;101055.75;4981606;28;20049;-89
2021/03/04 10:22:16;;;;;;;53.55;23.58;;;;;;;3.92;82.77;101063.16;4996223;28;20081;-89
2021/03/04 10:24:45;;;;;;;58.03;25.98;;;;;;;3.81;83.03;101055.56;5017973;28;20106;-90
2021/03/04 10:27:20;;;;;;;50.42;23.23;;;;;;;3.83;83.46;101051.19;4981241;28;20046;-90
2021/03/04 10:29:47;;;;;;;60.78;26.63;;;;;;;3.82;82.96;101057.28;4982547;28;20049;-89
2021/03/04 10:32:13;;;;;;;62.35;25.35;;;;;;;3.95;83.72;101056.09;5011949;28;20487;-89
2021/03/04 10:34:41;;;;;;;58.00;25.83;;;;;;;3.86;83.22;101045.91;4997039;28;20057;-88
2021/03/04 10:37:08;;;;;;;57.47;25.17;;;;;;;3.77;83.84;101046.97;5002933;28;20086;-87
2021/03/04 10:39:40;;;;;;;75.38;25.63;;;;;;;3.60;84.96;101045.66;5009387;28;20426;-87
2021/03/04 10:42:07;;;;;;;51.05;24.67;;;;;;;3.82;83.91;101036.44;5004691;28;20057;-88
2021/03/04 10:44:34;;;;;;;53.40;23.60;;;;;;;3.74;83.42;101054.03;5015550;28;20034;-88
2021/03/04 10:47:01;;;;;;;59.88;25.02;;;;;;;3.60;84.18;101043.91;5011065;28;20073;-88
2021/03/04 10:49:28;;;;;;;52.33;22.45;;;;;;;3.63;84.51;101043.84;4996192;28;20161;-88
2021/03/04 10:51:54;;;;;;;50.08;23.30;;;;;;;3.88;83.15;101038.06;5014863;28;20084;-88
2021/03/04 10:54:22;;;;;;;44.90;21.65;;;;;;;4.11;82.47;101043.53;4999381;28;20127;-88
2021/03/04 10:56:51;;;;;;;48.55;22.83;;;;;;;4.05;81.25;101046.28;4995370;28;20073;-87
2021/03/04 10:59:19;;;;;;;48.85;23.60;;;;;;;3.97;81.68;101046.50;4984624;28;20109;-88
2021/03/04 11:01:47;;;;;;;48.13;21.45;;;;;;;3.74;81.79;101043.59;5006831;28;20072;-88
2021/03/04 11:04:26;;;;;;;45.08;22.35;;;;;;;3.88;81.78;101040.66;4995250;28;20034;-89
2021/03/04 11:06:54;;;;;;;55.90;22.10;;;;;;;3.88;81.23;101049.34;5005846;28;20117;-89
2021/03/04 11:09:21;;;;;;;47.13;20.20;;;;;;;3.85;81.27;101049.41;5010287;28;20057;-88
2021/03/04 11:11:49;;;;;;;46.58;21.13;;;;;;;3.43;82.16;101054.72;5013518;28;20026;-88
2021/03/04 11:14:18;;;;;;;44.65;21.40;;;;;;;3.47;82.22;101055.53;4996046;28;20046;-84
2021/03/04 11:16:45;;;;;;;43.65;19.52;;;;;;;3.66;81.99;101055.94;5028565;28;20053;-89
2021/03/04 11:19:13;;;;;;;42.47;20.05;;;;;;;3.84;80.98;101055.50;5011910;28;20053;-86
2021/03/04 11:21:45;;;;;;;47.50;20.10;;;;;;;3.99;80.67;101055.13;4991730;28;20058;-85
2021/03/04 11:24:13;;;;;;;56.95;20.70;;;;;;;3.95;80.43;101058.69;5018450;28;20606;-91
2021/03/04 11:26:41;;;;;;;38.67;17.98;;;;;;;3.60;79.74;101064.72;5007309;28;20061;-90